sensor_id;sensor_type;location;lat;lon;timestamp;temperature;humidity
57843;DHT22;43673;51.058;3.734;2023-03-26T00:00:11;10.70;99.90
57843;DHT22;43673;51.058;3.734;2023-03-26T00:02:37;10.70;99.90
57843;DHT22;43673;51.058;3.734;2023-03-26T00:05:05;10.80;99.90
57843;DHT22;43673;51.058;3.734;2023-03-26T00:07:31;10.90;99.90
57843;DHT22;43673;51.058;3.734;2023-03-26T00:09:57;10.90;99.90
57843;DHT22;43673;51.058;3.734;2023-03-26T00:12:24;10.90;99.90
57843;DHT22;43673;51.058;3.734;2023-03-26T00:14:50;11.00;99.90
57843;DHT22;43673;51.058;3.734;2023-03-26T00:17:17;11.10;99.90
57843;DHT22;43673;51.058;3.734;2023-03-26T00:19:43;11.10;99.90
57843;DHT22;43673;51.058;3.734;2023-03-26T00:22:10;11.10;99.90
57843;DHT22;43673;51.058;3.734;2023-03-26T00:24:38;11.20;99.90
57843;DHT22;43673;51.058;3.734;2023-03-26T00:27:04;11.10;99.90
57843;DHT22;43673;51.058;3.734;2023-03-26T00:29:30;11.20;99.90
57843;DHT22;43673;51.058;3.734;2023-03-26T00:31:57;11.20;99.90
57843;DHT22;43673;51.058;3.734;2023-03-26T00:34:23;11.20;99.90
57843;DHT22;43673;51.058;3.734;2023-03-26T00:36:51;11.30;99.90
57843;DHT22;43673;51.058;3.734;2023-03-26T00:39:19;11.30;99.90
57843;DHT22;43673;51.058;3.734;2023-03-26T00:41:46;11.30;99.90
57843;DHT22;43673;51.058;3.734;2023-03-26T00:44:12;11.20;99.90
57843;DHT22;43673;51.058;3.734;2023-03-26T00:46:38;11.20;99.90
57843;DHT22;43673;51.058;3.734;2023-03-26T00:49:04;11.20;99.90
57843;DHT22;43673;51.058;3.734;2023-03-26T00:51:30;11.20;99.90
57843;DHT22;43673;51.058;3.734;2023-03-26T00:53:57;11.20;99.90
57843;DHT22;43673;51.058;3.734;2023-03-26T00:56:23;11.20;99.90
57843;DHT22;43673;51.058;3.734;2023-03-26T00:58:49;11.20;99.90
57843;DHT22;43673;51.058;3.734;2023-03-26T01:01:18;11.20;99.90
57843;DHT22;43673;51.058;3.734;2023-03-26T01:03:47;11.20;99.90
57843;DHT22;43673;51.058;3.734;2023-03-26T01:06:36;11.10;99.90
57843;DHT22;43673;51.058;3.734;2023-03-26T01:09:14;11.10;99.90
57843;DHT22;43673;51.058;3.734;2023-03-26T01:11:40;11.10;99.90
57843;DHT22;43673;51.058;3.734;2023-03-26T01:14:20;11.10;99.90
57843;DHT22;43673;51.058;3.734;2023-03-26T01:16:52;11.10;99.90
57843;DHT22;43673;51.058;3.734;2023-03-26T01:22:14;11.00;99.90
57843;DHT22;43673;51.058;3.734;2023-03-26T01:24:40;10.80;99.90
57843;DHT22;43673;51.058;3.734;2023-03-26T01:30:12;10.70;99.90
57843;DHT22;43673;51.058;3.734;2023-03-26T01:43:53;10.70;99.90
57843;DHT22;43673;51.058;3.734;2023-03-26T01:46:16;10.70;99.90
57843;DHT22;43673;51.058;3.734;2023-03-26T01:48:45;10.60;99.90
57843;DHT22;43673;51.058;3.734;2023-03-26T01:51:12;10.60;99.90
57843;DHT22;43673;51.058;3.734;2023-03-26T01:53:46;10.60;99.90
57843;DHT22;43673;51.058;3.734;2023-03-26T01:56:20;10.60;99.90
57843;DHT22;43673;51.058;3.734;2023-03-26T01:58:59;10.60;99.90
57843;DHT22;43673;51.058;3.734;2023-03-26T02:01:57;10.60;99.90
57843;DHT22;43673;51.058;3.734;2023-03-26T02:05:10;10.60;99.90
57843;DHT22;43673;51.058;3.734;2023-03-26T02:07:46;10.70;99.90
57843;DHT22;43673;51.058;3.734;2023-03-26T02:10:25;10.70;99.90
57843;DHT22;43673;51.058;3.734;2023-03-26T02:12:52;10.80;99.90
57843;DHT22;43673;51.058;3.734;2023-03-26T02:15:18;10.80;99.90
57843;DHT22;43673;51.058;3.734;2023-03-26T02:17:45;10.70;99.90
57843;DHT22;43673;51.058;3.734;2023-03-26T02:20:13;10.60;99.90
57843;DHT22;43673;51.058;3.734;2023-03-26T02:22:41;10.60;99.90
57843;DHT22;43673;51.058;3.734;2023-03-26T02:25:12;10.60;99.90
57843;DHT22;43673;51.058;3.734;2023-03-26T02:27:38;10.50;99.90
57843;DHT22;43673;51.058;3.734;2023-03-26T02:30:07;10.50;99.90
57843;DHT22;43673;51.058;3.734;2023-03-26T02:32:34;10.50;99.90
57843;DHT22;43673;51.058;3.734;2023-03-26T02:35:00;10.50;99.90
57843;DHT22;43673;51.058;3.734;2023-03-26T02:37:26;10.50;99.90
57843;DHT22;43673;51.058;3.734;2023-03-26T02:39:52;10.60;99.90
57843;DHT22;43673;51.058;3.734;2023-03-26T02:42:18;10.60;99.90
57843;DHT22;43673;51.058;3.734;2023-03-26T02:44:43;10.60;99.90
57843;DHT22;43673;51.058;3.734;2023-03-26T02:47:09;10.60;99.90
57843;DHT22;43673;51.058;3.734;2023-03-26T02:49:35;10.50;99.90
57843;DHT22;43673;51.058;3.734;2023-03-26T02:52:00;10.50;99.90
57843;DHT22;43673;51.058;3.734;2023-03-26T02:54:31;10.60;99.90
57843;DHT22;43673;51.058;3.734;2023-03-26T02:56:58;10.50;99.90
57843;DHT22;43673;51.058;3.734;2023-03-26T02:59:23;10.40;99.90
57843;DHT22;43673;51.058;3.734;2023-03-26T03:01:49;10.40;99.90
57843;DHT22;43673;51.058;3.734;2023-03-26T03:04:15;10.40;99.90
57843;DHT22;43673;51.058;3.734;2023-03-26T03:06:43;10.40;99.90
57843;DHT22;43673;51.058;3.734;2023-03-26T03:09:11;10.40;99.90
57843;DHT22;43673;51.058;3.734;2023-03-26T03:11:39;10.40;99.90
57843;DHT22;43673;51.058;3.734;2023-03-26T03:14:05;10.30;99.90
57843;DHT22;43673;51.058;3.734;2023-03-26T03:16:31;10.30;99.90
57843;DHT22;43673;51.058;3.734;2023-03-26T03:18:57;10.40;99.90
57843;DHT22;43673;51.058;3.734;2023-03-26T03:21:24;10.30;99.90
57843;DHT22;43673;51.058;3.734;2023-03-26T03:23:50;10.30;99.90
57843;DHT22;43673;51.058;3.734;2023-03-26T03:26:18;10.20;99.90
57843;DHT22;43673;51.058;3.734;2023-03-26T03:28:47;10.20;99.90
57843;DHT22;43673;51.058;3.734;2023-03-26T03:31:14;10.20;99.90
57843;DHT22;43673;51.058;3.734;2023-03-26T03:33:40;10.30;99.90
57843;DHT22;43673;51.058;3.734;2023-03-26T03:36:09;10.30;99.90
57843;DHT22;43673;51.058;3.734;2023-03-26T03:38:36;10.30;99.90
57843;DHT22;43673;51.058;3.734;2023-03-26T03:41:02;10.20;99.90
57843;DHT22;43673;51.058;3.734;2023-03-26T03:43:28;10.20;99.90
57843;DHT22;43673;51.058;3.734;2023-03-26T03:45:54;10.10;99.90
57843;DHT22;43673;51.058;3.734;2023-03-26T03:48:19;10.10;99.90
57843;DHT22;43673;51.058;3.734;2023-03-26T03:50:45;10.10;99.90
57843;DHT22;43673;51.058;3.734;2023-03-26T03:53:11;10.10;99.90
57843;DHT22;43673;51.058;3.734;2023-03-26T03:55:43;10.10;99.90
57843;DHT22;43673;51.058;3.734;2023-03-26T03:58:22;10.10;99.90
57843;DHT22;43673;51.058;3.734;2023-03-26T04:00:50;10.10;99.90
57843;DHT22;43673;51.058;3.734;2023-03-26T04:03:16;10.10;99.90
57843;DHT22;43673;51.058;3.734;2023-03-26T04:05:43;10.10;99.90
57843;DHT22;43673;51.058;3.734;2023-03-26T04:08:14;10.20;99.90
57843;DHT22;43673;51.058;3.734;2023-03-26T04:10:41;10.20;99.90
57843;DHT22;43673;51.058;3.734;2023-03-26T04:13:09;10.20;99.90
57843;DHT22;43673;51.058;3.734;2023-03-26T04:15:35;10.20;99.90
57843;DHT22;43673;51.058;3.734;2023-03-26T04:18:01;10.20;99.90
57843;DHT22;43673;51.058;3.734;2023-03-26T04:20:27;10.20;99.90
57843;DHT22;43673;51.058;3.734;2023-03-26T04:22:52;10.20;99.90
57843;DHT22;43673;51.058;3.734;2023-03-26T04:25:18;10.20;99.90
57843;DHT22;43673;51.058;3.734;2023-03-26T04:27:46;10.20;99.90
57843;DHT22;43673;51.058;3.734;2023-03-26T04:30:17;10.10;99.90
57843;DHT22;43673;51.058;3.734;2023-03-26T04:32:45;10.10;99.90
57843;DHT22;43673;51.058;3.734;2023-03-26T04:35:13;10.20;99.90
57843;DHT22;43673;51.058;3.734;2023-03-26T04:37:42;10.30;99.90
57843;DHT22;43673;51.058;3.734;2023-03-26T04:40:15;10.30;99.90
57843;DHT22;43673;51.058;3.734;2023-03-26T04:42:41;10.30;99.90
57843;DHT22;43673;51.058;3.734;2023-03-26T04:45:11;10.30;99.90
57843;DHT22;43673;51.058;3.734;2023-03-26T04:47:36;10.30;99.90
57843;DHT22;43673;51.058;3.734;2023-03-26T04:50:07;10.40;99.90
57843;DHT22;43673;51.058;3.734;2023-03-26T04:52:34;10.40;99.90
57843;DHT22;43673;51.058;3.734;2023-03-26T04:55:00;10.50;99.90
57843;DHT22;43673;51.058;3.734;2023-03-26T04:57:45;10.60;99.90
57843;DHT22;43673;51.058;3.734;2023-03-26T05:00:15;10.60;99.90
57843;DHT22;43673;51.058;3.734;2023-03-26T05:02:43;10.70;99.90
57843;DHT22;43673;51.058;3.734;2023-03-26T05:05:09;10.70;99.90
57843;DHT22;43673;51.058;3.734;2023-03-26T05:07:35;10.70;99.90
57843;DHT22;43673;51.058;3.734;2023-03-26T05:10:01;10.70;99.90
57843;DHT22;43673;51.058;3.734;2023-03-26T05:12:30;10.70;99.90
57843;DHT22;43673;51.058;3.734;2023-03-26T05:14:56;10.70;99.90
57843;DHT22;43673;51.058;3.734;2023-03-26T05:17:22;10.60;99.90
57843;DHT22;43673;51.058;3.734;2023-03-26T05:19:49;10.60;99.90
57843;DHT22;43673;51.058;3.734;2023-03-26T05:22:16;10.60;99.90
57843;DHT22;43673;51.058;3.734;2023-03-26T05:24:42;10.60;99.90
57843;DHT22;43673;51.058;3.734;2023-03-26T05:27:15;10.50;99.90
57843;DHT22;43673;51.058;3.734;2023-03-26T05:29:46;10.50;99.90
57843;DHT22;43673;51.058;3.734;2023-03-26T05:32:12;10.40;99.90
57843;DHT22;43673;51.058;3.734;2023-03-26T05:34:39;10.40;99.90
57843;DHT22;43673;51.058;3.734;2023-03-26T05:37:05;10.30;99.90
57843;DHT22;43673;51.058;3.734;2023-03-26T05:39:32;10.30;99.90
57843;DHT22;43673;51.058;3.734;2023-03-26T05:41:57;10.20;99.90
57843;DHT22;43673;51.058;3.734;2023-03-26T05:44:23;10.20;99.90
57843;DHT22;43673;51.058;3.734;2023-03-26T05:46:49;10.10;99.90
57843;DHT22;43673;51.058;3.734;2023-03-26T05:49:15;10.00;99.90
57843;DHT22;43673;51.058;3.734;2023-03-26T05:51:41;9.90;99.90
57843;DHT22;43673;51.058;3.734;2023-03-26T05:54:06;9.90;99.90
57843;DHT22;43673;51.058;3.734;2023-03-26T05:56:32;9.70;99.90
57843;DHT22;43673;51.058;3.734;2023-03-26T05:58:58;9.70;99.90
57843;DHT22;43673;51.058;3.734;2023-03-26T06:01:23;9.60;99.90
57843;DHT22;43673;51.058;3.734;2023-03-26T06:03:50;9.60;99.90
57843;DHT22;43673;51.058;3.734;2023-03-26T06:06:18;9.60;99.90
57843;DHT22;43673;51.058;3.734;2023-03-26T06:08:49;9.40;99.90
57843;DHT22;43673;51.058;3.734;2023-03-26T06:11:16;9.30;99.90
57843;DHT22;43673;51.058;3.734;2023-03-26T06:13:43;9.30;99.90
57843;DHT22;43673;51.058;3.734;2023-03-26T06:16:10;9.30;99.90
57843;DHT22;43673;51.058;3.734;2023-03-26T06:18:37;9.30;99.90
57843;DHT22;43673;51.058;3.734;2023-03-26T06:21:04;9.30;99.90
57843;DHT22;43673;51.058;3.734;2023-03-26T06:23:30;9.20;99.90
57843;DHT22;43673;51.058;3.734;2023-03-26T06:25:56;8.90;99.90
57843;DHT22;43673;51.058;3.734;2023-03-26T06:28:22;9.10;99.90
57843;DHT22;43673;51.058;3.734;2023-03-26T06:30:49;9.10;99.90
57843;DHT22;43673;51.058;3.734;2023-03-26T06:33:15;9.10;99.90
57843;DHT22;43673;51.058;3.734;2023-03-26T06:35:41;9.00;99.90
57843;DHT22;43673;51.058;3.734;2023-03-26T06:38:08;8.90;99.90
57843;DHT22;43673;51.058;3.734;2023-03-26T06:40:34;8.70;99.90
57843;DHT22;43673;51.058;3.734;2023-03-26T06:43:00;8.60;99.90
57843;DHT22;43673;51.058;3.734;2023-03-26T06:45:27;8.60;99.90
57843;DHT22;43673;51.058;3.734;2023-03-26T06:47:52;8.60;99.90
57843;DHT22;43673;51.058;3.734;2023-03-26T06:50:18;8.70;99.90
57843;DHT22;43673;51.058;3.734;2023-03-26T06:52:44;8.60;99.90
57843;DHT22;43673;51.058;3.734;2023-03-26T06:55:11;8.70;99.90
57843;DHT22;43673;51.058;3.734;2023-03-26T06:57:37;8.70;99.90
57843;DHT22;43673;51.058;3.734;2023-03-26T07:00:04;8.70;99.90
57843;DHT22;43673;51.058;3.734;2023-03-26T07:02:30;8.70;99.90
57843;DHT22;43673;51.058;3.734;2023-03-26T07:04:56;8.80;99.90
57843;DHT22;43673;51.058;3.734;2023-03-26T07:07:22;8.80;99.90
57843;DHT22;43673;51.058;3.734;2023-03-26T07:09:50;8.80;99.90
57843;DHT22;43673;51.058;3.734;2023-03-26T07:12:16;8.90;99.90
57843;DHT22;43673;51.058;3.734;2023-03-26T07:14:42;9.00;99.90
57843;DHT22;43673;51.058;3.734;2023-03-26T07:17:07;9.00;99.90
57843;DHT22;43673;51.058;3.734;2023-03-26T07:19:33;9.00;99.90
57843;DHT22;43673;51.058;3.734;2023-03-26T07:21:59;9.00;99.90
57843;DHT22;43673;51.058;3.734;2023-03-26T07:24:25;9.00;99.90
57843;DHT22;43673;51.058;3.734;2023-03-26T07:27:04;9.00;99.90
57843;DHT22;43673;51.058;3.734;2023-03-26T07:29:52;9.00;99.90
57843;DHT22;43673;51.058;3.734;2023-03-26T07:32:40;9.00;99.90
57843;DHT22;43673;51.058;3.734;2023-03-26T07:35:26;9.00;99.90
57843;DHT22;43673;51.058;3.734;2023-03-26T07:38:09;8.90;99.90
57843;DHT22;43673;51.058;3.734;2023-03-26T07:46:32;8.70;99.90
57843;DHT22;43673;51.058;3.734;2023-03-26T07:49:02;8.60;99.90
57843;DHT22;43673;51.058;3.734;2023-03-26T07:51:29;8.60;99.90
57843;DHT22;43673;51.058;3.734;2023-03-26T07:53:56;8.60;99.90
57843;DHT22;43673;51.058;3.734;2023-03-26T07:56:31;8.60;99.90
57843;DHT22;43673;51.058;3.734;2023-03-26T07:59:20;8.60;99.90
57843;DHT22;43673;51.058;3.734;2023-03-26T08:02:28;8.60;99.90
57843;DHT22;43673;51.058;3.734;2023-03-26T08:05:04;8.60;99.90
57843;DHT22;43673;51.058;3.734;2023-03-26T08:08:07;8.70;99.90
57843;DHT22;43673;51.058;3.734;2023-03-26T08:11:12;8.60;99.90
57843;DHT22;43673;51.058;3.734;2023-03-26T08:16:37;8.50;99.90
57843;DHT22;43673;51.058;3.734;2023-03-26T08:21:57;8.30;99.90
57843;DHT22;43673;51.058;3.734;2023-03-26T08:24:54;8.30;99.90
57843;DHT22;43673;51.058;3.734;2023-03-26T08:27:38;8.30;99.90
57843;DHT22;43673;51.058;3.734;2023-03-26T08:32:33;8.20;99.90
57843;DHT22;43673;51.058;3.734;2023-03-26T08:34:59;8.30;99.90
57843;DHT22;43673;51.058;3.734;2023-03-26T08:37:25;8.30;99.90
57843;DHT22;43673;51.058;3.734;2023-03-26T08:39:52;8.30;99.90
57843;DHT22;43673;51.058;3.734;2023-03-26T08:47:54;8.30;99.90
57843;DHT22;43673;51.058;3.734;2023-03-26T08:51:02;8.30;99.90
57843;DHT22;43673;51.058;3.734;2023-03-26T08:59:36;8.50;99.90
57843;DHT22;43673;51.058;3.734;2023-03-26T09:10:51;8.00;99.90
57843;DHT22;43673;51.058;3.734;2023-03-26T09:14:14;8.00;99.90
57843;DHT22;43673;51.058;3.734;2023-03-26T09:17:04;8.00;99.90
57843;DHT22;43673;51.058;3.734;2023-03-26T09:22:56;8.00;99.90
57843;DHT22;43673;51.058;3.734;2023-03-26T09:34:27;8.10;99.90
57843;DHT22;43673;51.058;3.734;2023-03-26T09:36:55;8.20;99.90
57843;DHT22;43673;51.058;3.734;2023-03-26T09:54:04;8.30;99.90
57843;DHT22;43673;51.058;3.734;2023-03-26T10:04:20;8.30;99.90
57843;DHT22;43673;51.058;3.734;2023-03-26T10:15:10;8.50;99.90
57843;DHT22;43673;51.058;3.734;2023-03-26T10:25:16;8.60;99.90
57843;DHT22;43673;51.058;3.734;2023-03-26T10:36:34;8.80;99.90
57843;DHT22;43673;51.058;3.734;2023-03-26T10:47:25;9.10;99.90
57843;DHT22;43673;51.058;3.734;2023-03-26T10:52:48;9.20;99.90
57843;DHT22;43673;51.058;3.734;2023-03-26T10:55:36;9.30;99.90
57843;DHT22;43673;51.058;3.734;2023-03-26T10:58:25;9.30;99.90
57843;DHT22;43673;51.058;3.734;2023-03-26T11:00:56;9.50;99.90
57843;DHT22;43673;51.058;3.734;2023-03-26T11:06:22;9.70;99.90
57843;DHT22;43673;51.058;3.734;2023-03-26T11:14:42;10.00;99.90
57843;DHT22;43673;51.058;3.734;2023-03-26T11:20:12;10.40;99.90
57843;DHT22;43673;51.058;3.734;2023-03-26T11:22:53;10.40;99.90
57843;DHT22;43673;51.058;3.734;2023-03-26T11:25:43;10.50;99.90
57843;DHT22;43673;51.058;3.734;2023-03-26T11:28:49;10.60;99.90
57843;DHT22;43673;51.058;3.734;2023-03-26T11:31:41;10.70;99.90
57843;DHT22;43673;51.058;3.734;2023-03-26T11:34:14;10.70;99.90
57843;DHT22;43673;51.058;3.734;2023-03-26T11:36:49;10.70;99.90
57843;DHT22;43673;51.058;3.734;2023-03-26T11:39:34;10.90;99.90
57843;DHT22;43673;51.058;3.734;2023-03-26T11:42:07;10.90;99.90
57843;DHT22;43673;51.058;3.734;2023-03-26T11:47:34;10.90;99.90
57843;DHT22;43673;51.058;3.734;2023-03-26T11:50:03;10.90;99.90
57843;DHT22;43673;51.058;3.734;2023-03-26T11:55:01;10.90;99.90
57843;DHT22;43673;51.058;3.734;2023-03-26T11:57:32;11.00;99.90
57843;DHT22;43673;51.058;3.734;2023-03-26T12:00:13;11.00;99.90
57843;DHT22;43673;51.058;3.734;2023-03-26T12:02:44;11.10;99.90
57843;DHT22;43673;51.058;3.734;2023-03-26T12:05:15;11.10;99.90
57843;DHT22;43673;51.058;3.734;2023-03-26T12:07:49;11.00;99.90
57843;DHT22;43673;51.058;3.734;2023-03-26T12:10:36;11.10;99.90
57843;DHT22;43673;51.058;3.734;2023-03-26T12:16:15;11.50;99.90
57843;DHT22;43673;51.058;3.734;2023-03-26T12:18:42;11.10;99.90
57843;DHT22;43673;51.058;3.734;2023-03-26T12:21:10;11.20;99.90
57843;DHT22;43673;51.058;3.734;2023-03-26T12:23:59;11.20;99.90
57843;DHT22;43673;51.058;3.734;2023-03-26T12:26:35;11.30;99.90
57843;DHT22;43673;51.058;3.734;2023-03-26T12:29:17;11.30;99.90
57843;DHT22;43673;51.058;3.734;2023-03-26T12:32:08;11.20;99.90
57843;DHT22;43673;51.058;3.734;2023-03-26T12:34:38;11.30;99.90
57843;DHT22;43673;51.058;3.734;2023-03-26T12:37:06;11.30;99.90
57843;DHT22;43673;51.058;3.734;2023-03-26T12:39:42;11.30;99.90
57843;DHT22;43673;51.058;3.734;2023-03-26T12:42:45;11.50;99.90
57843;DHT22;43673;51.058;3.734;2023-03-26T12:45:15;11.60;99.90
57843;DHT22;43673;51.058;3.734;2023-03-26T12:47:45;11.60;99.90
57843;DHT22;43673;51.058;3.734;2023-03-26T12:50:13;11.60;99.90
57843;DHT22;43673;51.058;3.734;2023-03-26T12:55:46;11.60;99.90
57843;DHT22;43673;51.058;3.734;2023-03-26T13:01:14;11.70;99.90
57843;DHT22;43673;51.058;3.734;2023-03-26T13:06:42;11.50;99.90
57843;DHT22;43673;51.058;3.734;2023-03-26T13:12:11;11.20;99.90
57843;DHT22;43673;51.058;3.734;2023-03-26T13:23:23;11.50;99.90
57843;DHT22;43673;51.058;3.734;2023-03-26T13:28:41;11.50;99.90
57843;DHT22;43673;51.058;3.734;2023-03-26T13:37:01;11.50;99.90
57843;DHT22;43673;51.058;3.734;2023-03-26T13:39:34;11.50;99.90
57843;DHT22;43673;51.058;3.734;2023-03-26T13:42:25;11.40;99.90
57843;DHT22;43673;51.058;3.734;2023-03-26T13:47:34;11.30;99.90
57843;DHT22;43673;51.058;3.734;2023-03-26T13:52:37;11.20;99.90
57843;DHT22;43673;51.058;3.734;2023-03-26T13:55:21;11.30;99.90
57843;DHT22;43673;51.058;3.734;2023-03-26T14:01:18;11.30;99.90
57843;DHT22;43673;51.058;3.734;2023-03-26T14:06:27;11.30;99.90
57843;DHT22;43673;51.058;3.734;2023-03-26T14:09:02;11.30;99.90
57843;DHT22;43673;51.058;3.734;2023-03-26T14:14:11;11.20;99.90
57843;DHT22;43673;51.058;3.734;2023-03-26T14:17:02;11.30;99.90
57843;DHT22;43673;51.058;3.734;2023-03-26T14:32:06;11.10;99.90
57843;DHT22;43673;51.058;3.734;2023-03-26T14:35:02;11.00;99.90
57843;DHT22;43673;51.058;3.734;2023-03-26T14:37:56;10.90;99.90
57843;DHT22;43673;51.058;3.734;2023-03-26T14:54:07;10.20;99.90
57843;DHT22;43673;51.058;3.734;2023-03-26T14:56:56;10.20;99.90
57843;DHT22;43673;51.058;3.734;2023-03-26T15:05:46;10.40;99.90
57843;DHT22;43673;51.058;3.734;2023-03-26T15:09:02;10.50;99.90
57843;DHT22;43673;51.058;3.734;2023-03-26T15:20:51;10.20;99.90
57843;DHT22;43673;51.058;3.734;2023-03-26T15:24:08;10.10;99.90
57843;DHT22;43673;51.058;3.734;2023-03-26T15:26:53;9.90;99.90
57843;DHT22;43673;51.058;3.734;2023-03-26T15:43:10;10.00;99.90
57843;DHT22;43673;51.058;3.734;2023-03-26T15:45:37;10.10;99.90
57843;DHT22;43673;51.058;3.734;2023-03-26T15:50:58;10.20;99.90
57843;DHT22;43673;51.058;3.734;2023-03-26T15:59:51;10.10;99.90
57843;DHT22;43673;51.058;3.734;2023-03-26T16:05:19;10.10;99.90
57843;DHT22;43673;51.058;3.734;2023-03-26T16:13:37;10.10;99.90
57843;DHT22;43673;51.058;3.734;2023-03-26T16:29:17;10.00;99.90
57843;DHT22;43673;51.058;3.734;2023-03-26T16:32:03;10.10;99.90
57843;DHT22;43673;51.058;3.734;2023-03-26T16:34:44;10.10;99.90
57843;DHT22;43673;51.058;3.734;2023-03-26T16:37:41;10.00;99.90
57843;DHT22;43673;51.058;3.734;2023-03-26T16:48:05;9.70;99.90
57843;DHT22;43673;51.058;3.734;2023-03-26T16:50:49;9.60;99.90
57843;DHT22;43673;51.058;3.734;2023-03-26T16:53:38;9.60;99.90
57843;DHT22;43673;51.058;3.734;2023-03-26T16:56:34;9.70;99.90
57843;DHT22;43673;51.058;3.734;2023-03-26T16:59:10;9.60;99.90
57843;DHT22;43673;51.058;3.734;2023-03-26T17:02:04;9.40;99.90
57843;DHT22;43673;51.058;3.734;2023-03-26T17:04:38;9.40;99.90
57843;DHT22;43673;51.058;3.734;2023-03-26T17:07:11;9.30;99.90
57843;DHT22;43673;51.058;3.734;2023-03-26T17:17:46;9.20;99.90
57843;DHT22;43673;51.058;3.734;2023-03-26T17:23:21;9.20;99.90
57843;DHT22;43673;51.058;3.734;2023-03-26T17:33:42;9.00;99.90
57843;DHT22;43673;51.058;3.734;2023-03-26T17:41:10;9.00;99.90
57843;DHT22;43673;51.058;3.734;2023-03-26T17:43:51;8.90;99.90
57843;DHT22;43673;51.058;3.734;2023-03-26T17:46:36;8.80;99.90
57843;DHT22;43673;51.058;3.734;2023-03-26T17:49:15;8.80;99.90
57843;DHT22;43673;51.058;3.734;2023-03-26T17:54:33;8.70;99.90
57843;DHT22;43673;51.058;3.734;2023-03-26T17:57:13;8.60;99.90
57843;DHT22;43673;51.058;3.734;2023-03-26T17:59:42;8.60;99.90
57843;DHT22;43673;51.058;3.734;2023-03-26T18:02:15;8.60;99.90
57843;DHT22;43673;51.058;3.734;2023-03-26T18:04:43;8.60;99.90
57843;DHT22;43673;51.058;3.734;2023-03-26T18:10:22;8.60;99.90
57843;DHT22;43673;51.058;3.734;2023-03-26T18:12:59;8.40;99.90
57843;DHT22;43673;51.058;3.734;2023-03-26T18:18:36;8.40;99.90
57843;DHT22;43673;51.058;3.734;2023-03-26T18:21:06;8.40;99.90
57843;DHT22;43673;51.058;3.734;2023-03-26T18:23:38;8.30;99.90
57843;DHT22;43673;51.058;3.734;2023-03-26T18:27:00;8.30;99.90
57843;DHT22;43673;51.058;3.734;2023-03-26T18:29:24;8.30;99.90
57843;DHT22;43673;51.058;3.734;2023-03-26T18:31:58;8.20;99.90
57843;DHT22;43673;51.058;3.734;2023-03-26T18:34:27;8.00;99.90
57843;DHT22;43673;51.058;3.734;2023-03-26T18:39:28;8.20;99.90
57843;DHT22;43673;51.058;3.734;2023-03-26T18:41:54;8.30;99.90
57843;DHT22;43673;51.058;3.734;2023-03-26T18:44:20;8.30;99.90
57843;DHT22;43673;51.058;3.734;2023-03-26T18:46:46;8.20;99.90
57843;DHT22;43673;51.058;3.734;2023-03-26T18:49:14;8.30;99.90
57843;DHT22;43673;51.058;3.734;2023-03-26T18:51:41;8.30;99.90
57843;DHT22;43673;51.058;3.734;2023-03-26T18:54:17;8.30;99.90
57843;DHT22;43673;51.058;3.734;2023-03-26T18:56:46;8.30;99.90
57843;DHT22;43673;51.058;3.734;2023-03-26T19:01:48;8.30;99.90
57843;DHT22;43673;51.058;3.734;2023-03-26T19:04:14;8.30;99.90
57843;DHT22;43673;51.058;3.734;2023-03-26T19:06:41;8.20;99.90
57843;DHT22;43673;51.058;3.734;2023-03-26T19:09:08;8.20;99.90
57843;DHT22;43673;51.058;3.734;2023-03-26T19:11:39;8.10;99.90
57843;DHT22;43673;51.058;3.734;2023-03-26T19:14:18;8.10;99.90
57843;DHT22;43673;51.058;3.734;2023-03-26T19:16:57;8.10;99.90
57843;DHT22;43673;51.058;3.734;2023-03-26T19:19:34;8.10;99.90
57843;DHT22;43673;51.058;3.734;2023-03-26T19:22:03;8.10;99.90
57843;DHT22;43673;51.058;3.734;2023-03-26T19:24:30;8.10;99.90
57843;DHT22;43673;51.058;3.734;2023-03-26T19:26:56;8.00;99.90
57843;DHT22;43673;51.058;3.734;2023-03-26T19:29:32;8.00;99.90
57843;DHT22;43673;51.058;3.734;2023-03-26T19:32:16;7.90;99.90
57843;DHT22;43673;51.058;3.734;2023-03-26T19:34:44;7.90;99.90
57843;DHT22;43673;51.058;3.734;2023-03-26T19:37:19;8.00;99.90
57843;DHT22;43673;51.058;3.734;2023-03-26T19:39:53;8.00;99.90
57843;DHT22;43673;51.058;3.734;2023-03-26T19:42:28;7.80;99.90
57843;DHT22;43673;51.058;3.734;2023-03-26T19:44:57;8.00;99.90
57843;DHT22;43673;51.058;3.734;2023-03-26T19:47:29;7.90;99.90
57843;DHT22;43673;51.058;3.734;2023-03-26T19:49:58;7.90;99.90
57843;DHT22;43673;51.058;3.734;2023-03-26T19:52:32;7.90;99.90
57843;DHT22;43673;51.058;3.734;2023-03-26T19:55:21;8.00;99.90
57843;DHT22;43673;51.058;3.734;2023-03-26T19:57:48;8.00;99.90
57843;DHT22;43673;51.058;3.734;2023-03-26T20:00:14;8.00;99.90
57843;DHT22;43673;51.058;3.734;2023-03-26T20:02:41;8.00;99.90
57843;DHT22;43673;51.058;3.734;2023-03-26T20:05:25;7.90;99.90
57843;DHT22;43673;51.058;3.734;2023-03-26T20:07:54;7.80;99.90
57843;DHT22;43673;51.058;3.734;2023-03-26T20:10:21;7.70;99.90
57843;DHT22;43673;51.058;3.734;2023-03-26T20:12:47;7.60;99.90
57843;DHT22;43673;51.058;3.734;2023-03-26T20:15:33;7.60;99.90
57843;DHT22;43673;51.058;3.734;2023-03-26T20:18:00;7.60;99.90
57843;DHT22;43673;51.058;3.734;2023-03-26T20:20:26;7.60;99.90
57843;DHT22;43673;51.058;3.734;2023-03-26T20:22:53;7.70;99.90
57843;DHT22;43673;51.058;3.734;2023-03-26T20:25:29;7.60;99.90
57843;DHT22;43673;51.058;3.734;2023-03-26T20:27:58;7.70;99.90
57843;DHT22;43673;51.058;3.734;2023-03-26T20:30:24;7.60;99.90
57843;DHT22;43673;51.058;3.734;2023-03-26T20:32:50;7.70;99.90
57843;DHT22;43673;51.058;3.734;2023-03-26T20:35:20;7.60;99.90
57843;DHT22;43673;51.058;3.734;2023-03-26T20:37:46;7.70;99.90
57843;DHT22;43673;51.058;3.734;2023-03-26T20:40:13;7.70;99.90
57843;DHT22;43673;51.058;3.734;2023-03-26T20:42:41;7.60;99.90
57843;DHT22;43673;51.058;3.734;2023-03-26T20:45:20;7.70;99.90
57843;DHT22;43673;51.058;3.734;2023-03-26T20:47:47;7.60;99.90
57843;DHT22;43673;51.058;3.734;2023-03-26T20:50:19;7.60;99.90
57843;DHT22;43673;51.058;3.734;2023-03-26T20:52:46;7.60;99.90
57843;DHT22;43673;51.058;3.734;2023-03-26T20:55:14;7.60;99.90
57843;DHT22;43673;51.058;3.734;2023-03-26T20:57:41;7.60;99.90
57843;DHT22;43673;51.058;3.734;2023-03-26T21:00:09;7.50;99.90
57843;DHT22;43673;51.058;3.734;2023-03-26T21:02:44;7.50;99.90
57843;DHT22;43673;51.058;3.734;2023-03-26T21:05:10;7.40;99.90
57843;DHT22;43673;51.058;3.734;2023-03-26T21:07:42;7.40;99.90
57843;DHT22;43673;51.058;3.734;2023-03-26T21:10:12;7.40;99.90
57843;DHT22;43673;51.058;3.734;2023-03-26T21:12:57;7.30;99.90
57843;DHT22;43673;51.058;3.734;2023-03-26T21:15:25;7.30;99.90
57843;DHT22;43673;51.058;3.734;2023-03-26T21:17:52;7.30;99.90
57843;DHT22;43673;51.058;3.734;2023-03-26T21:20:20;7.20;99.90
57843;DHT22;43673;51.058;3.734;2023-03-26T21:26:05;7.30;99.90
57843;DHT22;43673;51.058;3.734;2023-03-26T21:28:39;7.40;99.90